St. Maarten, Netherlands Antilles
Current Conditions -  °F | °C
As of 11:00 AM on Saturday 25 Oct 2014 (Local Time) from TNCM Reporting Station
Few Clouds Few Clouds  
Wind Chill: 86°   Ceiling: Unl
Heat Index: 95°   Visibility: 6mi
Dew Point: 75°   Wind: 10mph
Humidity: 70%   Direction: 130°SE
Pressure: 29.94"   Gusts: NA
Location:  18.05°N, 63.12°W
Report Text: TNCM 251500Z 13009KT 9999 FEW022 30/24 Q1014 A2995 NOSIG
Loading
Personal Weather Stations






























Interactive Weather Map
Tropical Storm Tracking
New forecast layout! Learn more

10-Day Weather Forecast

Advertisements
Track Severe Weather on mobile